Osterdock, Iowa
Current Conditions -  °F | °C
As of 11:15 AM on Sunday 21 Dec 2014 (Local Time) from KPDC Reporting Station
Haze Haze  
Wind Chill: 32°   Ceiling: 1500
Heat Index: 38°   Visibility: 5mi
Dew Point: 33°   Wind: 8mph
Humidity: 82%   Direction: 140°SE
Pressure: 30"   Gusts: 16mph
Location:  42.6454°N, 91.192°W
Report Text: KPDC 211715Z AUTO 14007G14KT 5SM HZ OVC015 04/01 A3000 RMK AO2 T00350007
Loading
Personal Weather Stations






























Interactive Weather Map New forecast layout! Learn more

10-Day Weather Forecast

Advertisements
Track Severe Weather on mobile